createdAt,value
2024-05-09T00:00:44.375Z,3.60
2024-05-09T00:03:32.689Z,3.40
2024-05-09T00:06:01.034Z,3.50
2024-05-09T00:08:29.051Z,3.80
2024-05-09T00:10:57.071Z,3.40
2024-05-09T00:13:25.161Z,3.20
2024-05-09T00:15:52.884Z,3.90
2024-05-09T00:18:20.818Z,3.50
2024-05-09T00:20:49.298Z,3.20
2024-05-09T00:23:17.235Z,3.70
2024-05-09T00:25:45.627Z,3.30
2024-05-09T00:28:13.478Z,3.80
2024-05-09T00:30:41.649Z,3.70
2024-05-09T00:33:10.938Z,3.30
2024-05-09T00:35:41.289Z,3.40
2024-05-09T00:38:10.303Z,3.50
2024-05-09T00:40:41.716Z,4.10
2024-05-09T00:43:12.953Z,3.50
2024-05-09T00:45:42.178Z,3.60
2024-05-09T00:48:13.977Z,3.20
2024-05-09T00:50:45.383Z,3.20
2024-05-09T00:53:15.859Z,3.00
2024-05-09T00:55:44.740Z,3.30
2024-05-09T00:58:16.254Z,3.40
2024-05-09T01:00:44.669Z,3.50
2024-05-09T01:03:14.064Z,3.60
2024-05-09T01:05:44.036Z,3.90
2024-05-09T01:08:12.738Z,3.90
2024-05-09T01:10:44.841Z,3.50
2024-05-09T01:13:14.157Z,3.40
2024-05-09T01:15:42.866Z,3.70
2024-05-09T01:18:12.424Z,3.70
2024-05-09T01:20:44.161Z,3.60
2024-05-09T01:23:15.358Z,3.80
2024-05-09T01:25:46.122Z,3.70
2024-05-09T01:28:15.051Z,3.80
2024-05-09T01:30:43.503Z,3.40
2024-05-09T01:33:12.519Z,4.40
2024-05-09T01:35:42.570Z,3.90
2024-05-09T01:38:13.234Z,3.50
2024-05-09T01:40:43.866Z,3.50
2024-05-09T01:43:12.365Z,3.60
2024-05-09T01:45:40.754Z,3.60
2024-05-09T01:48:10.024Z,3.90
2024-05-09T01:50:41.744Z,3.70
2024-05-09T01:53:14.096Z,3.80
2024-05-09T01:55:43.894Z,4.00
2024-05-09T01:58:11.814Z,3.30
2024-05-09T02:00:43.565Z,3.40
2024-05-09T02:03:16.363Z,3.70
2024-05-09T02:05:48.429Z,4.10
2024-05-09T02:08:18.953Z,3.60
2024-05-09T02:10:49.517Z,4.10
2024-05-09T02:13:18.327Z,3.70
2024-05-09T02:15:46.629Z,3.60
2024-05-09T02:18:15.041Z,3.50
2024-05-09T02:20:43.708Z,4.00
2024-05-09T02:23:12.611Z,3.70
2024-05-09T02:25:43.896Z,4.10
2024-05-09T02:28:11.891Z,4.00
2024-05-09T02:30:41.748Z,4.60
2024-05-09T02:33:12.540Z,4.30
2024-05-09T02:35:44.023Z,4.80
2024-05-09T02:38:12.914Z,4.40
2024-05-09T02:40:41.576Z,4.50
2024-05-09T02:43:12.649Z,4.80
2024-05-09T02:45:41.251Z,4.10
2024-05-09T02:48:13.643Z,4.80
2024-05-09T02:50:44.274Z,4.80
2024-05-09T02:53:13.248Z,4.00
2024-05-09T02:55:42.446Z,4.50
2024-05-09T02:58:11.135Z,4.80
2024-05-09T03:00:41.818Z,4.60
2024-05-09T03:03:13.472Z,5.00
2024-05-09T03:05:45.003Z,4.70
2024-05-09T03:08:13.551Z,4.50
2024-05-09T03:10:41.648Z,4.80
2024-05-09T03:13:12.171Z,4.90
2024-05-09T03:15:41.091Z,5.50
2024-05-09T03:18:09.164Z,4.90
2024-05-09T03:20:37.778Z,4.80
2024-05-09T03:23:07.841Z,5.40
2024-05-09T03:25:36.467Z,4.80
2024-05-09T03:28:04.643Z,4.90
2024-05-09T03:30:40.013Z,5.00
2024-05-09T03:33:11.754Z,4.80
2024-05-09T03:35:39.963Z,4.40
2024-05-09T03:38:08.016Z,4.80
2024-05-09T03:40:35.903Z,4.70
2024-05-09T03:43:03.835Z,4.70
2024-05-09T03:45:31.627Z,4.60
2024-05-09T03:47:59.643Z,4.70
2024-05-09T03:50:33.816Z,4.50
2024-05-09T03:53:04.296Z,5.40
2024-05-09T03:55:32.275Z,5.30
2024-05-09T03:58:00.407Z,4.40
2024-05-09T04:00:35.655Z,4.40
2024-05-09T04:03:09.685Z,5.20
2024-05-09T04:05:41.758Z,4.40
2024-05-09T04:08:11.302Z,4.20
2024-05-09T04:10:39.407Z,4.20
2024-05-09T04:13:07.292Z,4.40
2024-05-09T04:15:35.160Z,4.50
2024-05-09T04:18:03.320Z,4.70
2024-05-09T04:20:38.131Z,4.40
2024-05-09T04:23:13.547Z,4.40
2024-05-09T04:25:44.217Z,4.90
2024-05-09T04:28:14.721Z,4.40
2024-05-09T04:30:43.374Z,5.00
2024-05-09T04:33:15.193Z,5.40
2024-05-09T04:35:44.043Z,5.00
2024-05-09T04:38:13.832Z,4.60
2024-05-09T04:40:42.576Z,4.90
2024-05-09T04:43:19.296Z,5.00
2024-05-09T04:45:47.274Z,4.80
2024-05-09T04:48:16.507Z,5.10
2024-05-09T04:50:44.910Z,4.90
2024-05-09T04:53:16.382Z,5.70
2024-05-09T04:55:44.819Z,4.90
2024-05-09T04:58:12.634Z,5.30
2024-05-09T05:00:41.548Z,4.80
2024-05-09T05:03:13.813Z,5.40
2024-05-09T05:05:45.683Z,5.00
2024-05-09T05:08:19.171Z,5.50
2024-05-09T05:10:48.522Z,4.40
2024-05-09T05:15:52.223Z,4.60
2024-05-09T05:18:20.343Z,4.90
2024-05-09T05:20:49.135Z,4.90
2024-05-09T05:23:19.899Z,5.30
2024-05-09T05:25:49.655Z,5.20
2024-05-09T05:30:46.487Z,5.10
2024-05-09T05:33:15.967Z,5.70
2024-05-09T05:35:44.213Z,5.50
2024-05-09T05:38:12.286Z,4.90
2024-05-09T05:40:41.004Z,5.70
2024-05-09T05:43:16.440Z,6.00
2024-05-09T05:45:45.037Z,6.00
2024-05-09T05:48:16.059Z,5.70
2024-05-09T05:50:44.433Z,5.80
2024-05-09T05:53:12.504Z,5.90
2024-05-09T05:55:41.535Z,6.00
2024-05-09T05:58:13.250Z,6.30
2024-05-09T06:00:42.101Z,5.90
2024-05-09T06:03:13.433Z,6.10
2024-05-09T06:05:46.514Z,6.60
2024-05-09T06:08:14.844Z,5.50
2024-05-09T06:10:43.671Z,6.40
2024-05-09T06:13:13.309Z,6.10
2024-05-09T06:15:42.334Z,6.50
2024-05-09T06:18:12.078Z,6.40
2024-05-09T06:20:42.622Z,5.90
2024-05-09T06:23:12.870Z,6.20
2024-05-09T06:25:42.386Z,6.30
2024-05-09T06:28:11.010Z,6.60
2024-05-09T06:30:42.311Z,6.30
2024-05-09T06:33:14.047Z,7.10
2024-05-09T06:35:44.819Z,5.90
2024-05-09T06:38:13.780Z,5.90
2024-05-09T06:40:43.814Z,5.90
2024-05-09T06:43:18.250Z,6.40
2024-05-09T06:45:49.190Z,5.80
2024-05-09T06:48:21.634Z,5.50
2024-05-09T06:50:50.732Z,5.50
2024-05-09T06:53:22.667Z,5.50
2024-05-09T06:55:50.451Z,6.30
2024-05-09T06:58:18.506Z,5.60
2024-05-09T07:00:46.284Z,6.00
2024-05-09T07:03:17.885Z,6.20
2024-05-09T07:05:48.629Z,5.60
2024-05-09T07:08:18.217Z,5.70
2024-05-09T07:10:46.856Z,5.30
2024-05-09T07:13:15.742Z,5.70
2024-05-09T07:15:43.643Z,5.80
2024-05-09T07:18:13.798Z,5.60
2024-05-09T07:20:42.840Z,5.40
2024-05-09T07:23:12.930Z,4.70
2024-05-09T07:25:41.663Z,5.60
2024-05-09T07:28:20.416Z,5.10
2024-05-09T07:30:48.339Z,5.20
2024-05-09T07:33:17.766Z,4.90
2024-05-09T07:35:46.122Z,5.00
2024-05-09T07:38:15.056Z,5.50
2024-05-09T07:40:42.978Z,4.90
2024-05-09T07:43:11.954Z,4.40
2024-05-09T07:45:49.356Z,4.90
2024-05-09T07:52:37.887Z,4.90
2024-05-09T07:53:49.110Z,4.50
2024-05-09T07:56:22.586Z,4.70
2024-05-09T07:58:53.838Z,4.70
2024-05-09T08:01:22.078Z,4.20
2024-05-09T08:03:50.649Z,4.50
2024-05-09T08:06:19.071Z,5.20
2024-05-09T08:08:47.391Z,5.30
2024-05-09T08:11:15.885Z,4.10
2024-05-09T08:13:43.932Z,4.50
2024-05-09T08:16:14.310Z,4.10
2024-05-09T08:18:42.537Z,4.30
2024-05-09T08:21:10.431Z,4.20
2024-05-09T08:23:38.445Z,4.20
2024-05-09T08:26:08.551Z,3.70
2024-05-09T08:28:36.284Z,4.20
2024-05-09T08:31:06.946Z,3.80
2024-05-09T08:33:35.410Z,4.40
2024-05-09T08:36:03.715Z,4.40
2024-05-09T08:38:32.162Z,3.90
2024-05-09T08:41:03.365Z,3.80
2024-05-09T08:43:31.136Z,3.30
2024-05-09T08:45:59.940Z,3.50
2024-05-09T08:48:30.149Z,3.70
2024-05-09T08:50:59.295Z,3.60
2024-05-09T08:53:27.750Z,3.50
2024-05-09T08:56:00.893Z,3.50
2024-05-09T08:58:33.340Z,3.00
2024-05-09T09:01:03.789Z,3.40
2024-05-09T09:03:34.244Z,3.70
2024-05-09T09:06:06.794Z,3.10
2024-05-09T09:08:41.324Z,3.00
2024-05-09T09:11:09.388Z,2.90
2024-05-09T09:13:37.854Z,3.10
2024-05-09T09:16:06.836Z,3.30
2024-05-09T09:18:34.972Z,3.20
2024-05-09T09:21:03.311Z,3.10
2024-05-09T09:23:31.324Z,3.50
2024-05-09T09:26:00.208Z,3.80
2024-05-09T09:28:29.480Z,4.00
2024-05-09T09:31:04.637Z,3.60
2024-05-09T09:36:06.291Z,4.40
2024-05-09T09:38:37.444Z,4.00
2024-05-09T09:41:08.176Z,4.10
2024-05-09T09:43:36.942Z,4.10
2024-05-09T09:46:08.635Z,4.50
2024-05-09T09:48:40.609Z,4.00
2024-05-09T09:51:09.242Z,4.30
2024-05-09T09:53:38.280Z,3.90
2024-05-09T09:56:10.348Z,3.30
2024-05-09T09:58:41.420Z,3.60
2024-05-09T10:01:09.865Z,3.10
2024-05-09T10:03:38.561Z,4.80
2024-05-09T10:06:09.532Z,3.10
2024-05-09T10:08:38.048Z,3.10
2024-05-09T10:11:06.312Z,2.70
2024-05-09T10:13:37.383Z,2.00
2024-05-09T10:16:10.572Z,2.50
2024-05-09T10:18:40.577Z,3.30
2024-05-09T10:21:19.692Z,2.90
2024-05-09T10:24:18.992Z,3.40
2024-05-09T10:26:55.124Z,3.10
2024-05-09T10:29:25.564Z,3.20
2024-05-09T10:31:53.608Z,4.50
2024-05-09T10:34:24.436Z,4.40
2024-05-09T10:36:54.444Z,3.40
2024-05-09T10:39:22.583Z,3.60
2024-05-09T10:41:50.574Z,3.70
2024-05-09T10:44:18.795Z,3.70
2024-05-09T10:46:47.211Z,3.40
2024-05-09T10:49:15.262Z,3.70
2024-05-09T10:51:46.383Z,4.10
2024-05-09T10:54:14.199Z,4.20
2024-05-09T10:56:42.304Z,3.20
2024-05-09T10:59:12.870Z,3.80
2024-05-09T11:01:41.034Z,3.40
2024-05-09T11:04:09.176Z,3.10
2024-05-09T11:06:38.227Z,4.10
2024-05-09T11:09:06.479Z,4.50
2024-05-09T11:11:34.609Z,3.60
2024-05-09T11:14:12.244Z,3.80
2024-05-09T11:16:40.229Z,3.90
2024-05-09T11:19:13.462Z,3.60
2024-05-09T11:21:41.453Z,3.70
2024-05-09T11:24:11.463Z,4.00
2024-05-09T11:26:39.727Z,3.90
2024-05-09T11:29:07.631Z,4.10
2024-05-09T11:31:48.043Z,3.60
2024-05-09T11:34:16.264Z,3.80
2024-05-09T11:36:44.261Z,3.40
2024-05-09T11:39:14.821Z,3.80
2024-05-09T11:41:43.083Z,3.70
2024-05-09T11:44:11.452Z,3.50
2024-05-09T11:46:39.463Z,3.50
2024-05-09T11:49:09.592Z,3.60
2024-05-09T11:51:37.628Z,3.10
2024-05-09T11:54:05.366Z,3.50
2024-05-09T11:56:33.515Z,3.10
2024-05-09T11:59:03.331Z,3.20
2024-05-09T12:03:59.453Z,2.80
2024-05-09T12:06:27.570Z,2.60
2024-05-09T12:08:56.332Z,2.80
2024-05-09T12:11:24.134Z,3.00
2024-05-09T12:13:51.994Z,2.30
2024-05-09T12:16:19.970Z,2.30
2024-05-09T12:18:48.128Z,2.00
2024-05-09T12:21:17.334Z,2.70
2024-05-09T12:23:45.047Z,3.00
2024-05-09T12:26:13.131Z,2.60
2024-05-09T12:28:41.000Z,2.40
2024-05-09T12:31:08.916Z,2.20
2024-05-09T12:33:37.222Z,2.50
2024-05-09T12:36:05.839Z,3.30
2024-05-09T12:38:33.598Z,2.20
2024-05-09T12:41:02.212Z,2.50
2024-05-09T12:43:30.332Z,2.50
2024-05-09T12:45:58.652Z,2.20
2024-05-09T12:48:26.382Z,2.40
2024-05-09T12:50:57.401Z,2.60
2024-05-09T12:53:25.235Z,2.60
2024-05-09T12:55:57.044Z,2.60
2024-05-09T13:00:56.753Z,2.30
2024-05-09T13:03:24.848Z,2.00
2024-05-09T13:05:53.812Z,2.00
2024-05-09T13:08:22.126Z,2.20
2024-05-09T13:10:50.650Z,2.10
2024-05-09T13:13:18.709Z,2.40
2024-05-09T13:15:46.563Z,2.10
2024-05-09T13:18:14.929Z,2.60
2024-05-09T13:20:44.244Z,2.40
2024-05-09T13:23:11.987Z,2.50
2024-05-09T13:25:40.428Z,2.80
2024-05-09T13:28:08.814Z,3.00
2024-05-09T13:30:40.843Z,2.90
2024-05-09T13:33:12.188Z,3.20
2024-05-09T13:35:48.703Z,2.90
2024-05-09T13:38:21.142Z,3.00
2024-05-09T13:40:50.372Z,2.90
2024-05-09T13:43:19.263Z,2.70
2024-05-09T13:45:47.644Z,2.40
2024-05-09T13:48:15.932Z,2.60
2024-05-09T13:50:44.044Z,2.90
2024-05-09T13:53:12.094Z,2.70
2024-05-09T13:55:40.764Z,3.60
2024-05-09T13:58:09.602Z,3.20
2024-05-09T14:00:46.585Z,2.80
2024-05-09T14:03:20.434Z,3.20
2024-05-09T14:05:51.390Z,2.90
2024-05-09T14:08:21.749Z,3.70
2024-05-09T14:10:50.472Z,2.70
2024-05-09T14:13:20.011Z,3.40
2024-05-09T14:15:48.405Z,3.00
2024-05-09T14:18:17.249Z,4.00
2024-05-09T14:20:45.026Z,4.10
2024-05-09T14:23:12.911Z,2.70
2024-05-09T14:25:42.902Z,3.10
2024-05-09T14:28:12.634Z,2.70
2024-05-09T14:33:11.424Z,3.80
2024-05-09T14:35:39.758Z,3.40
2024-05-09T14:38:08.782Z,3.00
2024-05-09T14:40:42.378Z,2.80
2024-05-09T14:43:14.102Z,3.10
2024-05-09T14:45:43.769Z,3.70
2024-05-09T14:48:15.676Z,2.80
2024-05-09T14:50:44.157Z,3.00
2024-05-09T14:53:13.196Z,2.50
2024-05-09T14:55:43.316Z,2.60
2024-05-09T14:58:12.842Z,2.30
2024-05-09T15:03:19.389Z,1.40
2024-05-09T15:05:48.077Z,1.60
2024-05-09T15:08:17.454Z,1.90
2024-05-09T15:10:45.482Z,1.60
2024-05-09T15:13:16.379Z,1.80
2024-05-09T15:15:45.470Z,1.60
2024-05-09T15:18:14.604Z,1.90
2024-05-09T15:20:44.556Z,1.90
2024-05-09T15:23:12.612Z,1.90
2024-05-09T15:25:40.744Z,2.00
2024-05-09T15:28:08.782Z,2.40
2024-05-09T15:30:37.613Z,2.20
2024-05-09T15:33:07.202Z,2.00
2024-05-09T15:35:40.904Z,2.10
2024-05-09T15:38:09.535Z,1.80
2024-05-09T15:40:40.080Z,3.10
2024-05-09T15:43:11.257Z,1.80
2024-05-09T15:45:41.353Z,1.90
2024-05-09T15:48:10.738Z,2.50
2024-05-09T15:53:12.536Z,2.20
2024-05-09T15:55:42.552Z,1.80
2024-05-09T15:58:12.436Z,1.70
2024-05-09T16:00:44.033Z,1.90
2024-05-09T16:03:14.706Z,2.00
2024-05-09T16:05:45.490Z,2.20
2024-05-09T16:08:15.483Z,1.80
2024-05-09T16:10:45.828Z,2.00
2024-05-09T16:13:15.300Z,1.80
2024-05-09T16:15:44.047Z,2.40
2024-05-09T16:18:12.480Z,2.20
2024-05-09T16:20:42.571Z,2.10
2024-05-09T16:23:12.872Z,1.90
2024-05-09T16:25:45.979Z,2.20
2024-05-09T16:28:13.793Z,2.00
2024-05-09T16:30:41.706Z,2.10
2024-05-09T16:33:11.573Z,2.10
2024-05-09T16:35:40.167Z,3.00
2024-05-09T16:38:08.516Z,2.00
2024-05-09T16:40:40.214Z,3.10
2024-05-09T16:43:12.936Z,1.90
2024-05-09T16:45:46.332Z,2.00
2024-05-09T16:48:14.835Z,2.30
2024-05-09T16:50:43.531Z,2.10
2024-05-09T16:53:11.469Z,1.80
2024-05-09T16:55:39.688Z,1.70
2024-05-09T16:58:08.565Z,2.20
2024-05-09T17:00:41.739Z,1.60
2024-05-09T17:03:14.804Z,2.10
2024-05-09T17:05:46.639Z,2.10
2024-05-09T17:08:16.852Z,2.20
2024-05-09T17:13:13.157Z,1.70
2024-05-09T17:15:41.445Z,1.70
2024-05-09T17:18:10.055Z,1.90
2024-05-09T17:20:38.246Z,1.90
2024-05-09T17:23:15.504Z,2.80
2024-05-09T17:25:43.772Z,3.00
2024-05-09T17:28:12.549Z,2.90
2024-05-09T17:30:42.210Z,3.40
2024-05-09T17:33:12.890Z,2.90
2024-05-09T17:38:09.636Z,2.60
2024-05-09T17:40:38.948Z,2.40
2024-05-09T17:43:09.981Z,2.50
2024-05-09T17:45:40.905Z,2.30
2024-05-09T17:48:11.952Z,2.50
2024-05-09T17:50:41.624Z,2.50
2024-05-09T17:53:10.842Z,3.00
2024-05-09T17:55:40.239Z,3.40
2024-05-09T17:58:09.619Z,3.50
2024-05-09T18:00:40.715Z,3.20
2024-05-09T18:03:12.040Z,2.80
2024-05-09T18:05:43.962Z,2.80
2024-05-09T18:08:14.335Z,2.70
2024-05-09T18:10:42.980Z,2.40
2024-05-09T18:13:12.351Z,2.70
2024-05-09T18:15:41.193Z,2.40
2024-05-09T18:18:10.496Z,3.00
2024-05-09T18:20:43.883Z,3.30
2024-05-09T18:23:18.476Z,2.90
2024-05-09T18:25:48.042Z,3.00
2024-05-09T18:28:17.084Z,3.10
2024-05-09T18:30:45.519Z,3.30
2024-05-09T18:33:14.040Z,3.30
2024-05-09T18:35:43.882Z,3.10
2024-05-09T18:38:11.983Z,3.10
2024-05-09T18:40:42.018Z,3.30
2024-05-09T18:43:11.727Z,3.20
2024-05-09T18:45:40.637Z,4.60
2024-05-09T18:48:12.214Z,5.00
2024-05-09T18:50:41.391Z,4.80
2024-05-09T18:53:13.093Z,4.40
2024-05-09T18:55:42.460Z,8.50
2024-05-09T18:58:11.197Z,4.40
2024-05-09T19:00:41.811Z,5.90
2024-05-09T19:03:14.139Z,4.70
2024-05-09T19:05:44.669Z,5.50
2024-05-09T19:08:15.063Z,3.10
2024-05-09T19:10:45.216Z,3.10
2024-05-09T19:13:14.488Z,3.10
2024-05-09T19:15:43.819Z,3.80
2024-05-09T19:18:14.210Z,3.90
2024-05-09T19:20:44.170Z,3.70
2024-05-09T19:23:12.610Z,3.90
2024-05-09T19:25:40.776Z,4.00
2024-05-09T19:28:09.048Z,3.30
2024-05-09T19:30:41.844Z,3.50
2024-05-09T19:33:13.224Z,2.70
2024-05-09T19:35:43.059Z,3.20
2024-05-09T19:38:12.010Z,3.20
2024-05-09T19:40:41.378Z,3.60
2024-05-09T19:43:09.819Z,3.20
2024-05-09T19:45:38.212Z,3.50
2024-05-09T19:48:06.949Z,3.40
2024-05-09T19:50:41.962Z,4.00
2024-05-09T19:53:14.559Z,3.70
2024-05-09T19:55:43.401Z,2.80
2024-05-09T19:58:12.053Z,3.40
2024-05-09T20:00:43.071Z,3.80
2024-05-09T20:03:15.359Z,4.10
2024-05-09T20:05:46.311Z,3.80
2024-05-09T20:08:14.599Z,3.30
2024-05-09T20:10:44.342Z,3.90
2024-05-09T20:13:13.537Z,3.00
2024-05-09T20:15:42.301Z,3.90
2024-05-09T20:18:10.773Z,3.50
2024-05-09T20:20:42.390Z,3.20
2024-05-09T20:23:12.867Z,3.70
2024-05-09T20:25:41.897Z,3.40
2024-05-09T20:28:10.656Z,3.60
2024-05-09T20:30:39.077Z,3.50
2024-05-09T20:33:08.644Z,3.60
2024-05-09T20:35:37.819Z,3.30
2024-05-09T20:38:06.131Z,3.10
2024-05-09T20:40:37.704Z,3.80
2024-05-09T20:43:09.458Z,3.20
2024-05-09T20:45:38.249Z,3.50
2024-05-09T20:48:07.410Z,3.60
2024-05-09T20:50:39.980Z,3.40
2024-05-09T20:53:14.762Z,3.50
2024-05-09T20:55:44.410Z,3.30
2024-05-09T20:58:13.796Z,3.20
2024-05-09T21:00:44.794Z,3.50
2024-05-09T21:03:16.795Z,3.50
2024-05-09T21:05:47.257Z,3.40
2024-05-09T21:08:16.063Z,3.00
2024-05-09T21:10:44.572Z,3.50
2024-05-09T21:13:12.993Z,3.20
2024-05-09T21:15:41.252Z,3.70
2024-05-09T21:18:09.317Z,3.10
2024-05-09T21:20:37.456Z,5.20
2024-05-09T21:23:05.678Z,7.60
2024-05-09T21:25:33.854Z,6.00
2024-05-09T21:28:02.024Z,6.60
2024-05-09T21:30:38.629Z,5.80
2024-05-09T21:33:13.402Z,5.80
2024-05-09T21:35:44.014Z,4.90
2024-05-09T21:38:14.380Z,4.70
2024-05-09T21:40:43.376Z,5.20
2024-05-09T21:43:11.273Z,5.20
2024-05-09T21:45:39.410Z,5.40
2024-05-09T21:48:08.202Z,5.70
2024-05-09T21:50:40.337Z,5.20
2024-05-09T21:53:12.503Z,4.20
2024-05-09T21:55:42.510Z,4.60
2024-05-09T21:58:12.152Z,4.50
2024-05-09T22:00:42.802Z,5.10
2024-05-09T22:03:12.077Z,5.10
2024-05-09T22:05:44.277Z,5.20
2024-05-09T22:08:12.927Z,5.60
2024-05-09T22:10:40.775Z,4.70
2024-05-09T22:13:09.148Z,5.20
2024-05-09T22:15:39.933Z,4.90
2024-05-09T22:18:10.615Z,5.00
2024-05-09T22:20:46.596Z,4.90
2024-05-09T22:23:15.525Z,4.20
2024-05-09T22:25:43.791Z,4.70
2024-05-09T22:28:15.092Z,6.60
2024-05-09T22:30:46.007Z,6.50
2024-05-09T22:33:15.182Z,5.40
2024-05-09T22:35:43.161Z,5.60
2024-05-09T22:38:11.039Z,5.90
2024-05-09T22:40:47.350Z,5.30
2024-05-09T22:43:23.898Z,4.80
2024-05-09T22:45:56.586Z,4.70
2024-05-09T22:48:26.524Z,4.90
2024-05-09T22:50:54.737Z,4.40
2024-05-09T22:53:26.801Z,4.50
2024-05-09T22:55:54.760Z,4.80
2024-05-09T22:58:23.153Z,4.70
2024-05-09T23:00:51.647Z,4.60
2024-05-09T23:03:21.121Z,5.20
2024-05-09T23:05:49.537Z,3.80
2024-05-09T23:08:17.650Z,4.10
2024-05-09T23:10:45.977Z,4.70
2024-05-09T23:13:14.228Z,4.50
2024-05-09T23:15:42.087Z,5.20
2024-05-09T23:18:10.143Z,5.60
2024-05-09T23:20:39.907Z,5.60
2024-05-09T23:23:10.523Z,3.90
2024-05-09T23:25:43.304Z,5.00
2024-05-09T23:28:11.952Z,5.30
2024-05-09T23:30:41.154Z,4.70
2024-05-09T23:33:14.681Z,4.90
2024-05-09T23:35:44.297Z,4.50
2024-05-09T23:38:13.579Z,6.10
2024-05-09T23:40:42.976Z,5.40
2024-05-09T23:43:12.776Z,5.20
2024-05-09T23:45:42.149Z,5.20
2024-05-09T23:48:10.908Z,5.00
2024-05-09T23:50:40.292Z,5.10
2024-05-09T23:53:10.553Z,5.20
2024-05-09T23:55:39.082Z,5.50
2024-05-09T23:58:08.035Z,5.00
